createdAt,value
2018-01-13T00:00:32.270Z,10.47
2018-01-13T00:01:12.822Z,10.4
2018-01-13T00:01:53.355Z,10.4
2018-01-13T00:02:33.920Z,10.51
2018-01-13T00:03:14.446Z,10.42
2018-01-13T00:03:54.986Z,10.56
2018-01-13T00:04:35.498Z,10.51
2018-01-13T00:05:15.995Z,10.51
2018-01-13T00:05:56.606Z,10.6
2018-01-13T00:06:37.116Z,10.6
2018-01-13T00:07:17.689Z,10.73
2018-01-13T00:07:58.232Z,10.71
2018-01-13T00:08:38.751Z,10.76
2018-01-13T00:09:19.336Z,10.71
2018-01-13T00:09:59.820Z,10.63
2018-01-13T00:10:40.413Z,10.63
2018-01-13T00:11:20.886Z,10.55
2018-01-13T00:12:01.447Z,10.59
2018-01-13T00:12:41.994Z,10.6
2018-01-13T00:13:22.562Z,10.52
2018-01-13T00:14:03.153Z,10.63
2018-01-13T00:14:43.686Z,10.61
2018-01-13T00:15:24.247Z,10.67
2018-01-13T00:16:04.735Z,10.66
2018-01-13T00:16:45.324Z,10.71
2018-01-13T00:17:25.889Z,10.78
2018-01-13T00:18:06.477Z,10.55
2018-01-13T00:18:47.203Z,10.52
2018-01-13T00:19:28.222Z,10.61
2018-01-13T00:20:08.741Z,10.64
2018-01-13T00:20:49.261Z,10.61
2018-01-13T00:21:29.835Z,10.73
2018-01-13T00:22:10.364Z,10.6
2018-01-13T00:22:50.930Z,10.6
2018-01-13T00:23:31.430Z,10.53
2018-01-13T00:24:12.058Z,10.55
2018-01-13T00:24:52.580Z,10.51
2018-01-13T00:25:33.085Z,10.51
2018-01-13T00:26:13.631Z,10.53
2018-01-13T00:26:54.324Z,10.52
2018-01-13T00:27:34.841Z,10.51
2018-01-13T00:28:15.395Z,10.52
2018-01-13T00:28:56.020Z,10.4
2018-01-13T00:29:36.563Z,10.41
2018-01-13T00:30:17.101Z,10.52
2018-01-13T00:30:57.661Z,10.47
2018-01-13T00:31:38.209Z,10.33
2018-01-13T00:32:18.748Z,10.41
2018-01-13T00:32:59.354Z,10.56
2018-01-13T00:33:39.931Z,10.52
2018-01-13T00:34:20.501Z,10.42
2018-01-13T00:35:01.046Z,10.52
2018-01-13T00:35:41.537Z,10.52
2018-01-13T00:36:22.082Z,10.6
2018-01-13T00:37:02.626Z,10.48
2018-01-13T00:37:43.154Z,10.53
2018-01-13T00:38:23.646Z,10.51
2018-01-13T00:39:04.339Z,10.34
2018-01-13T00:39:44.961Z,10.56
2018-01-13T00:40:25.448Z,10.52
2018-01-13T00:41:06.004Z,10.42
2018-01-13T00:41:46.539Z,10.53
2018-01-13T00:42:27.124Z,10.48
2018-01-13T00:43:07.643Z,10.53
2018-01-13T00:43:48.193Z,10.55
2018-01-13T00:44:28.708Z,10.61
2018-01-13T00:45:09.223Z,10.56
2018-01-13T00:45:49.755Z,10.56
2018-01-13T00:46:30.319Z,10.66
2018-01-13T00:47:10.844Z,10.71
2018-01-13T00:47:51.373Z,10.67
2018-01-13T00:48:31.894Z,10.66
2018-01-13T00:49:12.429Z,10.63
2018-01-13T00:49:52.933Z,10.66
2018-01-13T00:50:33.501Z,10.56
2018-01-13T00:51:14.372Z,10.6
2018-01-13T00:53:03.707Z,10.59
2018-01-13T00:53:44.217Z,10.59
2018-01-13T00:54:24.740Z,10.52
2018-01-13T00:55:05.277Z,10.53
2018-01-13T00:55:45.804Z,10.55
2018-01-13T00:56:26.303Z,10.51
2018-01-13T00:57:06.842Z,10.55
2018-01-13T00:57:47.410Z,10.52
2018-01-13T00:58:27.935Z,10.52
2018-01-13T00:59:08.456Z,10.53
2018-01-13T00:59:49.002Z,10.56
2018-01-13T01:00:29.534Z,10.61
2018-01-13T01:01:10.075Z,10.73
2018-01-13T01:01:50.624Z,10.6
2018-01-13T01:02:31.128Z,10.61
2018-01-13T01:03:11.647Z,10.59
2018-01-13T01:03:52.185Z,10.52
2018-01-13T01:04:32.702Z,10.53
2018-01-13T01:05:13.233Z,10.6
2018-01-13T01:05:53.738Z,10.52
2018-01-13T01:06:34.305Z,10.63
2018-01-13T01:07:14.809Z,10.48
2018-01-13T01:07:55.366Z,10.52
2018-01-13T01:08:35.902Z,10.53
2018-01-13T01:09:16.471Z,10.52
2018-01-13T01:09:56.987Z,10.63
2018-01-13T01:10:37.519Z,10.6
2018-01-13T01:11:18.053Z,10.53
2018-01-13T01:11:58.533Z,10.56
2018-01-13T01:12:39.136Z,10.48
2018-01-13T01:13:19.637Z,10.51
2018-01-13T01:14:00.145Z,10.56
2018-01-13T01:14:40.733Z,10.64
2018-01-13T01:15:21.259Z,10.55
2018-01-13T01:16:01.833Z,10.61
2018-01-13T01:16:42.389Z,10.59
2018-01-13T01:17:22.931Z,10.61
2018-01-13T01:18:03.477Z,10.55
2018-01-13T01:18:43.992Z,10.59
2018-01-13T01:19:24.586Z,10.51
2018-01-13T01:20:05.083Z,10.33
2018-01-13T01:20:45.690Z,10.29
2018-01-13T01:21:26.148Z,10.12
2018-01-13T01:22:06.691Z,10.18
2018-01-13T01:22:47.236Z,10.2
2018-01-13T01:23:27.771Z,10.3
2018-01-13T01:24:08.329Z,10.36
2018-01-13T01:24:48.842Z,10.55
2018-01-13T01:25:29.385Z,10.51
2018-01-13T01:26:09.894Z,10.53
2018-01-13T01:26:50.441Z,10.48
2018-01-13T01:27:31.012Z,10.52
2018-01-13T01:28:11.530Z,10.38
2018-01-13T01:28:52.094Z,10.38
2018-01-13T01:29:32.607Z,10.45
2018-01-13T01:30:13.102Z,10.53
2018-01-13T01:30:53.678Z,10.51
2018-01-13T01:31:34.194Z,10.61
2018-01-13T01:32:14.737Z,10.51
2018-01-13T01:32:55.304Z,10.55
2018-01-13T01:33:35.930Z,10.53
2018-01-13T01:34:16.397Z,10.51
2018-01-13T01:34:56.975Z,10.55
2018-01-13T01:35:37.471Z,10.52
2018-01-13T01:36:18.036Z,10.6
2018-01-13T01:36:58.612Z,10.56
2018-01-13T01:37:39.135Z,10.61
2018-01-13T01:38:19.695Z,10.51
2018-01-13T01:39:00.214Z,10.63
2018-01-13T01:39:40.789Z,10.63
2018-01-13T01:40:21.307Z,10.63
2018-01-13T01:41:01.858Z,10.6
2018-01-13T01:41:42.372Z,10.61
2018-01-13T01:42:22.986Z,10.56
2018-01-13T01:43:03.496Z,10.59
2018-01-13T01:43:43.994Z,10.56
2018-01-13T01:44:24.553Z,10.68
2018-01-13T01:45:05.101Z,10.64
2018-01-13T01:45:45.683Z,10.6
2018-01-13T01:46:26.208Z,10.6
2018-01-13T01:47:06.730Z,10.51
2018-01-13T01:47:47.302Z,10.64
2018-01-13T01:48:27.796Z,10.6
2018-01-13T01:49:08.346Z,10.61
2018-01-13T01:49:48.946Z,10.61
2018-01-13T01:50:29.419Z,10.52
2018-01-13T01:51:10.025Z,10.61
2018-01-13T01:51:50.555Z,10.61
2018-01-13T01:52:31.071Z,10.64
2018-01-13T01:53:11.636Z,10.59
2018-01-13T01:53:52.201Z,10.64
2018-01-13T01:54:32.695Z,10.73
2018-01-13T01:55:13.194Z,10.66
2018-01-13T01:55:53.711Z,10.53
2018-01-13T01:56:34.235Z,10.64
2018-01-13T01:57:14.729Z,10.61
2018-01-13T01:57:55.338Z,10.63
2018-01-13T01:58:35.891Z,10.76
2018-01-13T01:59:16.425Z,10.63
2018-01-13T01:59:56.990Z,10.63
2018-01-13T02:00:37.542Z,10.59
2018-01-13T02:01:18.040Z,10.61
2018-01-13T02:01:58.624Z,10.73
2018-01-13T02:02:39.132Z,10.71
2018-01-13T02:03:19.745Z,10.63
2018-01-13T02:04:00.204Z,10.6
2018-01-13T02:04:40.752Z,10.7
2018-01-13T02:05:21.310Z,10.6
2018-01-13T02:06:01.847Z,10.7
2018-01-13T02:06:42.421Z,10.55
2018-01-13T02:07:22.958Z,10.52
2018-01-13T02:08:03.526Z,10.68
2018-01-13T02:08:44.045Z,10.68
2018-01-13T02:09:24.564Z,10.61
2018-01-13T02:10:05.089Z,10.73
2018-01-13T02:10:45.693Z,10.67
2018-01-13T02:11:26.154Z,10.68
2018-01-13T02:12:06.668Z,10.63
2018-01-13T02:12:47.209Z,10.53
2018-01-13T02:13:27.763Z,10.51
2018-01-13T02:14:08.315Z,10.63
2018-01-13T02:14:48.862Z,10.6
2018-01-13T02:15:29.403Z,10.63
2018-01-13T02:16:09.913Z,10.61
2018-01-13T02:16:50.435Z,10.53
2018-01-13T02:17:30.960Z,10.53
2018-01-13T02:18:11.475Z,10.61
2018-01-13T02:18:52.070Z,10.56
2018-01-13T02:19:32.609Z,10.52
2018-01-13T02:20:13.146Z,10.53
2018-01-13T02:20:53.733Z,10.64
2018-01-13T02:21:34.190Z,10.59
2018-01-13T02:22:14.711Z,10.64
2018-01-13T02:22:55.241Z,10.61
2018-01-13T02:23:35.786Z,10.68
2018-01-13T02:24:16.324Z,10.61
2018-01-13T02:24:56.894Z,10.66
2018-01-13T02:25:37.388Z,10.59
2018-01-13T02:26:17.921Z,10.52
2018-01-13T02:26:58.466Z,10.59
2018-01-13T02:27:39.010Z,10.51
2018-01-13T02:28:19.473Z,10.52
2018-01-13T02:29:00.046Z,10.52
2018-01-13T02:29:40.627Z,10.59
2018-01-13T02:30:21.147Z,10.67
2018-01-13T02:31:01.657Z,10.66
2018-01-13T02:31:42.208Z,10.56
2018-01-13T02:32:22.748Z,10.51
2018-01-13T02:33:03.316Z,10.52
2018-01-13T02:33:43.864Z,10.53
2018-01-13T02:34:24.445Z,10.63
2018-01-13T02:35:04.941Z,10.63
2018-01-13T02:35:45.497Z,10.61
2018-01-13T02:36:26.119Z,10.76
2018-01-13T02:37:06.668Z,10.71
2018-01-13T02:37:47.183Z,10.71
2018-01-13T02:38:27.765Z,10.48
2018-01-13T02:39:08.266Z,10.56
2018-01-13T02:39:48.786Z,10.63
2018-01-13T02:40:29.323Z,10.53
2018-01-13T02:41:09.883Z,10.53
2018-01-13T02:41:50.483Z,10.53
2018-01-13T02:42:30.934Z,10.6
2018-01-13T02:43:11.489Z,10.52
2018-01-13T02:43:52.023Z,10.48
2018-01-13T02:44:32.569Z,10.55
2018-01-13T02:45:13.125Z,10.47
2018-01-13T02:45:53.698Z,10.55
2018-01-13T02:46:34.144Z,10.56
2018-01-13T02:47:14.716Z,10.53
2018-01-13T02:47:55.229Z,10.42
2018-01-13T02:48:36.557Z,10.52
2018-01-13T02:49:17.155Z,10.52
2018-01-13T02:49:57.686Z,10.52
2018-01-13T02:50:38.196Z,10.59
2018-01-13T02:51:18.727Z,10.6
2018-01-13T02:51:59.988Z,10.61
2018-01-13T02:52:39.795Z,10.53
2018-01-13T02:53:20.557Z,10.6
2018-01-13T02:54:01.097Z,10.52
2018-01-13T02:54:41.660Z,10.48
2018-01-13T02:55:22.209Z,10.48
2018-01-13T02:56:02.736Z,10.56
2018-01-13T02:56:43.319Z,10.47
2018-01-13T02:57:23.860Z,10.56
2018-01-13T02:58:04.405Z,10.56
2018-01-13T02:58:44.958Z,10.64
2018-01-13T02:59:25.532Z,10.55
2018-01-13T03:00:06.062Z,10.55
2018-01-13T03:00:46.623Z,10.55
2018-01-13T03:01:27.119Z,10.64
2018-01-13T03:02:07.687Z,10.63
2018-01-13T03:02:48.223Z,10.64
2018-01-13T03:03:28.735Z,10.68
2018-01-13T03:04:09.267Z,10.64
2018-01-13T03:04:49.890Z,10.67
2018-01-13T03:05:30.376Z,10.61
2018-01-13T03:06:10.911Z,10.52
2018-01-13T03:06:51.511Z,10.66
2018-01-13T03:07:31.998Z,10.59
2018-01-13T03:08:12.566Z,10.55
2018-01-13T03:08:53.063Z,10.63
2018-01-13T03:09:33.613Z,10.48
2018-01-13T03:10:14.142Z,10.59
2018-01-13T03:10:54.664Z,10.52
2018-01-13T03:11:35.238Z,10.53
2018-01-13T03:12:15.785Z,10.38
2018-01-13T03:12:56.323Z,10.32
2018-01-13T03:13:36.808Z,10.38
2018-01-13T03:14:17.394Z,10.55
2018-01-13T03:14:57.964Z,10.48
2018-01-13T03:15:38.533Z,10.42
2018-01-13T03:16:19.020Z,10.52
2018-01-13T03:16:59.601Z,10.51
2018-01-13T03:17:40.107Z,10.56
2018-01-13T03:18:20.643Z,10.33
2018-01-13T03:19:01.201Z,10.41
2018-01-13T03:19:41.740Z,10.52
2018-01-13T03:20:22.318Z,10.52
2018-01-13T03:21:02.831Z,10.52
2018-01-13T03:21:43.330Z,10.61
2018-01-13T03:22:23.867Z,10.73
2018-01-13T03:23:04.442Z,10.56
2018-01-13T03:23:44.962Z,10.67
2018-01-13T03:24:25.511Z,10.66
2018-01-13T03:25:06.061Z,10.64
2018-01-13T03:25:46.596Z,10.67
2018-01-13T03:26:27.136Z,10.59
2018-01-13T03:27:07.665Z,10.55
2018-01-13T03:27:48.190Z,10.64
2018-01-13T03:28:28.680Z,10.56
2018-01-13T03:29:09.198Z,10.52
2018-01-13T03:29:49.698Z,10.53
2018-01-13T03:30:30.305Z,10.53
2018-01-13T03:31:10.809Z,10.52
2018-01-13T03:31:51.323Z,10.56
2018-01-13T03:32:31.807Z,10.52
2018-01-13T03:33:12.356Z,10.47
2018-01-13T03:33:52.869Z,10.59
2018-01-13T03:34:33.415Z,10.52
2018-01-13T03:35:13.991Z,10.36
2018-01-13T03:35:54.490Z,10.29
2018-01-13T03:36:35.022Z,10.27
2018-01-13T03:37:15.554Z,10.36
2018-01-13T03:37:56.062Z,10.36
2018-01-13T03:38:36.651Z,10.38
2018-01-13T03:39:17.187Z,10.29
2018-01-13T03:39:57.750Z,10.38
2018-01-13T03:40:38.209Z,10.3
2018-01-13T03:41:18.743Z,10.32
2018-01-13T03:41:59.346Z,10.29
2018-01-13T03:42:39.845Z,10.36
2018-01-13T03:43:20.379Z,10.45
2018-01-13T03:44:00.971Z,10.38
2018-01-13T03:44:41.493Z,10.29
2018-01-13T03:45:22.044Z,10.29
2018-01-13T03:46:02.606Z,10.17
2018-01-13T03:46:43.128Z,10.14
2018-01-13T03:47:23.610Z,10.26
2018-01-13T03:48:04.130Z,10.34
2018-01-13T03:48:44.697Z,10.4
2018-01-13T03:49:25.247Z,10.41
2018-01-13T03:50:05.758Z,10.42
2018-01-13T03:50:46.296Z,10.45
2018-01-13T03:51:26.878Z,10.47
2018-01-13T03:52:07.395Z,10.42
2018-01-13T03:52:47.955Z,10.6
2018-01-13T03:53:28.465Z,10.47
2018-01-13T03:54:09.029Z,10.52
2018-01-13T03:54:49.546Z,10.55
2018-01-13T03:55:30.057Z,10.34
2018-01-13T03:56:10.607Z,10.34
2018-01-13T03:56:51.093Z,10.15
2018-01-13T03:57:31.640Z,10.05
2018-01-13T03:58:12.153Z,10.05
2018-01-13T03:58:52.654Z,10.05
2018-01-13T03:59:33.195Z,10.08
2018-01-13T04:00:13.753Z,10.22
2018-01-13T04:00:54.304Z,10.26
2018-01-13T04:01:34.895Z,10.22
2018-01-13T04:02:15.389Z,10.15
2018-01-13T04:02:55.937Z,10.29
2018-01-13T04:03:36.509Z,10.17
2018-01-13T04:04:16.968Z,10.33
2018-01-13T04:04:57.589Z,10.22
2018-01-13T04:05:38.057Z,10.18
2018-01-13T04:06:18.588Z,10.09
2018-01-13T04:06:59.120Z,9.83
2018-01-13T04:07:39.658Z,9.83
2018-01-13T04:08:20.166Z,9.83
2018-01-13T04:09:00.681Z,9.89
2018-01-13T04:09:41.193Z,10.07
2018-01-13T04:10:21.768Z,9.99
2018-01-13T04:11:02.240Z,10.07
2018-01-13T04:11:42.825Z,9.97
2018-01-13T04:12:23.336Z,10.12
2018-01-13T04:13:03.879Z,10.15
2018-01-13T04:13:44.421Z,10.07
2018-01-13T04:14:25.000Z,9.97
2018-01-13T04:15:05.521Z,9.89
2018-01-13T04:15:46.066Z,9.97
2018-01-13T04:16:26.583Z,9.97
2018-01-13T04:17:07.120Z,10.01
2018-01-13T04:17:47.669Z,10.07
2018-01-13T04:18:28.188Z,10.11
2018-01-13T04:19:08.694Z,10.15
2018-01-13T04:19:49.257Z,9.9
2018-01-13T04:20:29.809Z,9.99
2018-01-13T04:21:10.299Z,9.79
2018-01-13T04:21:50.840Z,9.83
2018-01-13T04:22:31.389Z,9.78
2018-01-13T04:23:11.967Z,9.74
2018-01-13T04:23:52.463Z,9.78
2018-01-13T04:24:33.041Z,9.79
2018-01-13T04:25:13.596Z,9.83
2018-01-13T04:25:54.126Z,9.74
2018-01-13T04:26:34.618Z,9.78
2018-01-13T04:27:15.228Z,9.78
2018-01-13T04:27:55.740Z,9.75
2018-01-13T04:28:36.321Z,9.76
2018-01-13T04:29:16.897Z,9.79
2018-01-13T04:29:57.432Z,9.96
2018-01-13T04:30:38.005Z,9.87
2018-01-13T04:31:18.523Z,9.94
2018-01-13T04:31:59.069Z,9.96
2018-01-13T04:32:39.589Z,9.94
2018-01-13T04:33:20.208Z,9.86
2018-01-13T04:34:00.745Z,9.96
2018-01-13T04:34:41.318Z,9.81
2018-01-13T04:35:21.851Z,9.86
2018-01-13T04:36:02.338Z,9.75
2018-01-13T04:36:42.909Z,9.71
2018-01-13T04:37:23.510Z,9.75
2018-01-13T04:38:04.024Z,9.76
2018-01-13T04:38:44.539Z,9.78
2018-01-13T04:39:25.078Z,9.76
2018-01-13T04:40:05.606Z,9.89
2018-01-13T04:40:46.177Z,9.89
2018-01-13T04:41:26.706Z,9.96
2018-01-13T04:42:07.283Z,9.99
2018-01-13T04:42:47.798Z,9.94
2018-01-13T04:43:28.366Z,9.93
2018-01-13T04:44:08.906Z,10.02
2018-01-13T04:44:49.424Z,9.97
2018-01-13T04:45:29.976Z,9.79
2018-01-13T04:46:10.534Z,9.81
2018-01-13T04:46:51.061Z,9.76
2018-01-13T04:47:31.582Z,9.78
2018-01-13T04:48:12.154Z,9.57
2018-01-13T04:48:52.690Z,9.47
2018-01-13T04:49:33.249Z,9.61
2018-01-13T04:50:13.711Z,9.47
2018-01-13T04:50:54.284Z,9.6
2018-01-13T04:51:34.851Z,9.78
2018-01-13T04:52:15.411Z,9.78
2018-01-13T04:52:55.979Z,9.71
2018-01-13T04:53:36.491Z,9.81
2018-01-13T04:54:17.053Z,9.79
2018-01-13T04:54:57.595Z,9.79
2018-01-13T04:55:38.084Z,9.83
2018-01-13T04:56:18.677Z,9.87
2018-01-13T04:56:59.130Z,9.84
2018-01-13T04:57:39.673Z,9.76
2018-01-13T04:58:20.171Z,9.76
2018-01-13T04:59:00.706Z,9.69
2018-01-13T04:59:41.266Z,9.72
2018-01-13T05:00:21.770Z,9.69
2018-01-13T05:01:02.285Z,9.74
2018-01-13T05:01:42.848Z,9.69
2018-01-13T05:02:23.346Z,9.6
2018-01-13T05:03:03.907Z,9.72
2018-01-13T05:03:44.634Z,9.54
2018-01-13T05:04:25.214Z,9.39
2018-01-13T05:05:05.736Z,9.54
2018-01-13T05:05:46.298Z,9.36
2018-01-13T05:06:26.829Z,9.33
2018-01-13T05:07:07.320Z,9.24
2018-01-13T05:07:47.864Z,9.33
2018-01-13T05:08:28.407Z,9.39
2018-01-13T05:09:08.924Z,9.42
2018-01-13T05:09:49.433Z,9.38
2018-01-13T05:10:29.970Z,9.43
2018-01-13T05:11:10.516Z,9.54
2018-01-13T05:11:51.047Z,9.5
2018-01-13T05:12:31.618Z,9.6
2018-01-13T05:13:12.148Z,9.64
2018-01-13T05:13:52.652Z,9.6
2018-01-13T05:14:33.258Z,9.58
2018-01-13T05:15:13.779Z,9.58
2018-01-13T05:15:54.290Z,9.64
2018-01-13T05:16:34.841Z,9.66
2018-01-13T05:17:15.363Z,9.61
2018-01-13T05:17:55.933Z,9.61
2018-01-13T05:18:36.450Z,9.56
2018-01-13T05:19:16.998Z,9.48
2018-01-13T05:19:57.520Z,9.48
2018-01-13T05:20:38.028Z,9.36
2018-01-13T05:21:18.612Z,9.36
2018-01-13T05:21:59.124Z,9.39
2018-01-13T05:22:39.657Z,9.39
2018-01-13T05:23:20.205Z,9.43
2018-01-13T05:24:00.683Z,9.47
2018-01-13T05:24:41.250Z,9.5
2018-01-13T05:25:21.754Z,9.5
2018-01-13T05:26:02.349Z,9.61
2018-01-13T05:26:42.911Z,9.6
2018-01-13T05:27:23.379Z,9.61
2018-01-13T05:28:03.972Z,9.58
2018-01-13T05:28:44.526Z,9.42
2018-01-13T05:29:25.029Z,9.51
2018-01-13T05:30:05.591Z,9.53
2018-01-13T05:30:46.158Z,9.65
2018-01-13T05:31:26.668Z,9.69
2018-01-13T05:32:07.216Z,9.57
2018-01-13T05:32:47.721Z,9.47
2018-01-13T05:33:28.232Z,9.48
2018-01-13T05:34:08.788Z,9.71
2018-01-13T05:34:49.322Z,9.65
2018-01-13T05:35:29.906Z,9.81
2018-01-13T05:36:10.472Z,9.76
2018-01-13T05:36:51.049Z,9.71
2018-01-13T05:37:31.562Z,9.74
2018-01-13T05:38:12.094Z,9.74
2018-01-13T05:38:52.647Z,9.79
2018-01-13T05:39:33.186Z,9.75
2018-01-13T05:40:13.688Z,9.72
2018-01-13T05:40:54.233Z,9.72
2018-01-13T05:41:34.768Z,9.75
2018-01-13T05:42:15.332Z,9.66
2018-01-13T05:42:55.880Z,9.65
2018-01-13T05:43:36.368Z,9.6
2018-01-13T05:44:16.942Z,9.6
2018-01-13T05:44:57.449Z,9.65
2018-01-13T05:45:37.979Z,9.68
2018-01-13T05:46:18.449Z,9.58
2018-01-13T05:46:59.044Z,9.69
2018-01-13T05:47:39.515Z,9.65
2018-01-13T05:48:20.056Z,9.71
2018-01-13T05:49:00.613Z,9.68
2018-01-13T05:49:41.168Z,9.74
2018-01-13T05:50:21.718Z,9.74
2018-01-13T05:51:02.250Z,9.71
2018-01-13T05:51:42.764Z,9.74
2018-01-13T05:52:23.291Z,9.79
2018-01-13T05:53:03.835Z,9.71
2018-01-13T05:53:44.384Z,9.78
2018-01-13T05:54:24.919Z,9.84
2018-01-13T05:55:05.532Z,9.84
2018-01-13T05:55:46.021Z,9.83
2018-01-13T05:56:26.550Z,9.9
2018-01-13T05:57:07.118Z,9.76
2018-01-13T05:57:47.704Z,9.78
2018-01-13T05:58:28.212Z,9.75
2018-01-13T05:59:08.770Z,9.86
2018-01-13T05:59:49.288Z,9.83
2018-01-13T06:00:29.789Z,9.86
2018-01-13T06:01:10.354Z,9.79
2018-01-13T06:01:50.941Z,9.83
2018-01-13T06:02:31.491Z,9.79
2018-01-13T06:03:12.064Z,9.78
2018-01-13T06:03:52.666Z,9.74
2018-01-13T06:04:33.164Z,9.71
2018-01-13T06:05:13.688Z,9.71
2018-01-13T06:05:54.178Z,9.78
2018-01-13T06:06:34.720Z,9.78
2018-01-13T06:07:15.289Z,9.76
2018-01-13T06:07:55.797Z,9.84
2018-01-13T06:08:36.311Z,9.89
2018-01-13T06:09:16.847Z,9.78
2018-01-13T06:09:57.361Z,9.75
2018-01-13T06:10:37.895Z,9.6
2018-01-13T06:11:18.427Z,9.74
2018-01-13T06:11:59.048Z,9.74
2018-01-13T06:12:39.561Z,9.69
2018-01-13T06:13:20.120Z,9.71
2018-01-13T06:14:00.668Z,9.66
2018-01-13T06:14:41.194Z,9.69
2018-01-13T06:15:21.719Z,9.75
2018-01-13T06:16:02.221Z,9.78
2018-01-13T06:16:42.764Z,9.74
2018-01-13T06:17:23.336Z,9.64
2018-01-13T06:18:03.915Z,9.68
2018-01-13T06:18:44.444Z,9.74
2018-01-13T06:19:24.980Z,9.84
2018-01-13T06:20:05.531Z,9.79
2018-01-13T06:20:46.050Z,9.64
2018-01-13T06:21:26.586Z,9.57
2018-01-13T06:22:07.103Z,9.75
2018-01-13T06:22:47.634Z,9.71
2018-01-13T06:23:28.165Z,9.72
2018-01-13T06:24:08.711Z,9.74
2018-01-13T06:24:49.212Z,9.79
2018-01-13T06:25:29.792Z,9.81
2018-01-13T06:26:10.273Z,9.78
2018-01-13T06:26:50.852Z,9.76
2018-01-13T06:27:31.325Z,9.76
2018-01-13T06:28:11.949Z,9.75
2018-01-13T06:28:52.455Z,9.71
2018-01-13T06:29:33.031Z,9.74
2018-01-13T06:30:13.561Z,9.65
2018-01-13T06:30:54.062Z,9.74
2018-01-13T06:31:34.593Z,9.76
2018-01-13T06:32:15.102Z,9.83
2018-01-13T06:32:55.650Z,9.74
2018-01-13T06:33:36.145Z,9.68
2018-01-13T06:34:16.713Z,9.74
2018-01-13T06:34:57.261Z,9.66
2018-01-13T06:35:37.799Z,9.76
2018-01-13T06:36:18.351Z,9.69
2018-01-13T06:36:58.845Z,9.69
2018-01-13T06:37:39.405Z,9.69
2018-01-13T06:38:19.946Z,9.83
2018-01-13T06:39:00.456Z,9.71
2018-01-13T06:39:41.004Z,9.75
2018-01-13T06:40:21.523Z,9.75
2018-01-13T06:41:02.029Z,9.81
2018-01-13T06:41:42.597Z,9.84
2018-01-13T06:42:23.113Z,9.75
2018-01-13T06:43:03.726Z,9.78
2018-01-13T06:43:44.246Z,9.78
2018-01-13T06:44:24.862Z,9.72
2018-01-13T06:45:05.382Z,9.75
2018-01-13T06:45:46.000Z,9.78
2018-01-13T06:46:26.524Z,9.83
2018-01-13T06:47:07.057Z,9.78
2018-01-13T06:47:47.582Z,9.81
2018-01-13T06:48:28.100Z,9.81
2018-01-13T06:49:08.624Z,9.81
2018-01-13T06:49:49.160Z,9.81
2018-01-13T06:50:29.693Z,9.69
2018-01-13T06:51:10.586Z,9.79
2018-01-13T06:51:50.798Z,9.79
2018-01-13T06:52:31.320Z,9.87
2018-01-13T06:53:11.872Z,9.94
2018-01-13T06:53:53.304Z,9.81
2018-01-13T06:54:33.868Z,9.78
2018-01-13T06:55:14.432Z,9.81
2018-01-13T06:55:55.264Z,9.75
2018-01-13T06:56:35.923Z,9.68
2018-01-13T06:57:16.506Z,9.58
2018-01-13T06:57:57.039Z,9.65
2018-01-13T06:58:37.634Z,9.65
2018-01-13T06:59:18.175Z,9.71
2018-01-13T06:59:58.695Z,9.69
2018-01-13T07:00:40.129Z,9.75
2018-01-13T07:01:20.660Z,9.75
2018-01-13T07:02:01.220Z,9.78
2018-01-13T07:02:41.725Z,9.76
2018-01-13T07:03:22.318Z,9.65
2018-01-13T07:04:02.879Z,9.66
2018-01-13T07:04:43.368Z,9.74
2018-01-13T07:05:23.959Z,9.79
2018-01-13T07:06:04.436Z,9.83
2018-01-13T07:06:44.996Z,9.79
2018-01-13T07:07:25.489Z,9.72
2018-01-13T07:08:06.049Z,9.86
2018-01-13T07:08:46.763Z,9.81
2018-01-13T07:09:27.252Z,9.78
2018-01-13T07:10:08.040Z,9.71
2018-01-13T07:10:48.789Z,9.78
2018-01-13T07:11:29.313Z,9.66
2018-01-13T07:12:09.939Z,9.75
2018-01-13T07:12:50.408Z,9.78
2018-01-13T07:13:30.961Z,9.87
2018-01-13T07:14:11.502Z,9.84
2018-01-13T07:14:51.976Z,9.76
2018-01-13T07:15:32.510Z,9.81
2018-01-13T07:16:14.061Z,9.83
2018-01-13T07:16:54.149Z,9.91
2018-01-13T07:17:34.651Z,9.81
2018-01-13T07:18:15.256Z,9.81
2018-01-13T07:18:55.836Z,9.76
2018-01-13T07:19:36.328Z,9.87
2018-01-13T07:20:16.811Z,9.83
2018-01-13T07:20:57.312Z,9.83
2018-01-13T07:21:37.886Z,9.84
2018-01-13T07:22:18.465Z,9.94
2018-01-13T07:22:58.979Z,9.81
2018-01-13T07:23:39.506Z,9.79
2018-01-13T07:24:20.014Z,9.79
2018-01-13T07:25:00.582Z,9.79
2018-01-13T07:25:41.120Z,9.79
2018-01-13T07:26:21.692Z,9.76
2018-01-13T07:27:02.201Z,9.78
2018-01-13T07:27:42.719Z,9.74
2018-01-13T07:28:23.244Z,9.76
2018-01-13T07:29:03.747Z,9.86
2018-01-13T07:29:44.298Z,9.76
2018-01-13T07:30:24.773Z,9.75
2018-01-13T07:31:05.324Z,9.74
2018-01-13T07:31:45.868Z,9.68
2018-01-13T07:32:26.391Z,9.72
2018-01-13T07:33:06.911Z,9.72
2018-01-13T07:33:47.444Z,9.68
2018-01-13T07:34:28.015Z,9.81
2018-01-13T07:35:08.523Z,9.87
2018-01-13T07:35:49.141Z,9.79
2018-01-13T07:36:29.715Z,9.69
2018-01-13T07:37:10.297Z,9.78
2018-01-13T07:37:50.762Z,9.78
2018-01-13T07:38:31.320Z,9.83
2018-01-13T07:39:11.828Z,9.79
2018-01-13T07:39:52.450Z,9.78
2018-01-13T07:40:32.957Z,9.78
2018-01-13T07:41:13.487Z,9.71
2018-01-13T07:41:54.149Z,9.79
2018-01-13T07:42:34.680Z,9.83
2018-01-13T07:43:15.276Z,9.83
2018-01-13T07:43:55.775Z,9.75
2018-01-13T07:44:36.323Z,9.68
2018-01-13T07:45:16.991Z,9.75
2018-01-13T07:45:57.425Z,9.78
2018-01-13T07:46:37.991Z,9.79
2018-01-13T07:47:18.570Z,9.75
2018-01-13T07:47:59.112Z,9.9
2018-01-13T07:48:40.073Z,9.76
2018-01-13T07:49:20.572Z,9.83
2018-01-13T07:50:01.114Z,9.75
2018-01-13T07:50:41.646Z,9.78
2018-01-13T07:51:22.167Z,9.72
2018-01-13T07:52:02.709Z,9.72
2018-01-13T07:52:43.222Z,9.76
2018-01-13T07:53:23.879Z,9.86
2018-01-13T07:54:04.556Z,9.84
2018-01-13T07:54:45.123Z,9.71
2018-01-13T07:55:25.673Z,9.71
2018-01-13T07:56:06.208Z,9.76
2018-01-13T07:56:46.798Z,9.76
2018-01-13T07:57:27.316Z,9.78
2018-01-13T07:58:07.875Z,9.78
2018-01-13T07:58:48.404Z,9.83
2018-01-13T07:59:28.946Z,9.81
2018-01-13T08:00:09.493Z,9.68
2018-01-13T08:00:50.016Z,9.69
2018-01-13T08:01:30.648Z,9.74
2018-01-13T08:02:11.145Z,9.75
2018-01-13T08:02:51.762Z,9.75
2018-01-13T08:03:32.349Z,9.74
2018-01-13T08:04:15.774Z,9.79
2018-01-13T08:04:56.314Z,9.72
2018-01-13T08:05:36.843Z,9.75
2018-01-13T08:06:17.411Z,9.75
2018-01-13T08:06:58.625Z,9.76
2018-01-13T08:07:39.165Z,9.84
2018-01-13T08:08:19.687Z,9.76
2018-01-13T08:09:00.257Z,9.75
2018-01-13T08:09:40.803Z,9.78
2018-01-13T08:10:21.398Z,9.64
2018-01-13T08:11:01.885Z,9.71
2018-01-13T08:11:42.432Z,9.79
2018-01-13T08:12:23.025Z,9.78
2018-01-13T08:13:03.564Z,9.83
2018-01-13T08:13:44.142Z,9.75
2018-01-13T08:14:24.637Z,9.72
2018-01-13T08:15:05.142Z,9.79
2018-01-13T08:15:45.710Z,9.69
2018-01-13T08:16:26.203Z,9.68
2018-01-13T08:17:06.802Z,9.74
2018-01-13T08:17:47.328Z,9.83
2018-01-13T08:18:27.919Z,9.78
2018-01-13T08:19:08.462Z,9.76
2018-01-13T08:19:49.041Z,9.93
2018-01-13T08:20:29.580Z,9.99
2018-01-13T08:21:10.124Z,9.89
2018-01-13T08:21:50.606Z,9.9
2018-01-13T08:22:31.196Z,9.96
2018-01-13T08:23:11.745Z,9.81
2018-01-13T08:23:52.444Z,9.9
2018-01-13T08:24:34.163Z,9.89
2018-01-13T08:25:14.570Z,9.89
2018-01-13T08:25:55.093Z,9.79
2018-01-13T08:26:35.877Z,9.74
2018-01-13T08:27:16.891Z,9.72
2018-01-13T08:27:57.355Z,9.81
2018-01-13T08:28:37.902Z,9.76
2018-01-13T08:29:18.439Z,9.86
2018-01-13T08:29:58.927Z,9.81
2018-01-13T08:30:39.510Z,9.78
2018-01-13T08:31:20.133Z,9.71
2018-01-13T08:32:00.669Z,9.71
2018-01-13T08:32:41.234Z,9.76
2018-01-13T08:33:21.749Z,9.86
2018-01-13T08:34:02.244Z,9.84
2018-01-13T08:34:42.804Z,9.83
2018-01-13T08:35:23.408Z,9.94
2018-01-13T08:36:03.882Z,10.05
2018-01-13T08:36:44.399Z,10.11
2018-01-13T08:37:24.943Z,9.99
2018-01-13T08:38:05.477Z,9.97
2018-01-13T08:38:46.012Z,10.05
2018-01-13T08:39:26.591Z,10.07
2018-01-13T08:40:07.149Z,10.04
2018-01-13T08:40:47.685Z,10.11
2018-01-13T08:41:28.297Z,10.07
2018-01-13T08:42:08.912Z,10.02
2018-01-13T08:42:49.394Z,10.18
2018-01-13T08:43:29.992Z,9.86
2018-01-13T08:44:10.544Z,9.93
2018-01-13T08:44:51.085Z,10.01
2018-01-13T08:45:31.647Z,10.08
2018-01-13T08:46:12.212Z,10.08
2018-01-13T08:46:52.763Z,10.07
2018-01-13T08:47:33.257Z,10.14
2018-01-13T08:48:13.785Z,10.29
2018-01-13T08:48:54.346Z,10.14
2018-01-13T08:49:35.030Z,10.17
2018-01-13T08:50:15.610Z,10.25
2018-01-13T08:50:56.165Z,10.26
2018-01-13T08:51:36.706Z,10.3
2018-01-13T08:52:17.410Z,10.41
2018-01-13T08:52:57.803Z,10.3